sensor_id;sensor_type;location;lat;lon;timestamp;P1;durP1;ratioP1;P2;durP2;ratioP2
40058;SDS011;25763;49.972;8.568;2024-03-22T00:01:40;45.63;;;42.92;;
40058;SDS011;25763;49.972;8.568;2024-03-22T00:04:06;47.25;;;44.65;;
40058;SDS011;25763;49.972;8.568;2024-03-22T00:06:31;50.10;;;47.42;;
40058;SDS011;25763;49.972;8.568;2024-03-22T00:08:56;48.97;;;46.38;;
40058;SDS011;25763;49.972;8.568;2024-03-22T00:11:22;51.15;;;48.45;;
40058;SDS011;25763;49.972;8.568;2024-03-22T00:13:47;54.13;;;51.38;;
40058;SDS011;25763;49.972;8.568;2024-03-22T00:16:12;56.13;;;53.28;;
40058;SDS011;25763;49.972;8.568;2024-03-22T00:18:38;59.58;;;56.53;;
40058;SDS011;25763;49.972;8.568;2024-03-22T00:21:03;57.35;;;54.40;;
40058;SDS011;25763;49.972;8.568;2024-03-22T00:23:28;64.75;;;61.35;;
40058;SDS011;25763;49.972;8.568;2024-03-22T00:25:55;66.57;;;63.20;;
40058;SDS011;25763;49.972;8.568;2024-03-22T00:28:21;69.22;;;65.70;;
40058;SDS011;25763;49.972;8.568;2024-03-22T00:30:47;72.82;;;68.90;;
40058;SDS011;25763;49.972;8.568;2024-03-22T00:33:12;70.43;;;66.78;;
40058;SDS011;25763;49.972;8.568;2024-03-22T00:35:37;69.38;;;65.82;;
40058;SDS011;25763;49.972;8.568;2024-03-22T00:38:03;74.30;;;70.35;;
40058;SDS011;25763;49.972;8.568;2024-03-22T00:40:28;73.50;;;69.72;;
40058;SDS011;25763;49.972;8.568;2024-03-22T00:42:53;62.30;;;59.05;;
40058;SDS011;25763;49.972;8.568;2024-03-22T00:45:19;52.58;;;49.83;;
40058;SDS011;25763;49.972;8.568;2024-03-22T00:47:44;46.15;;;43.55;;
40058;SDS011;25763;49.972;8.568;2024-03-22T00:50:09;44.85;;;42.45;;
40058;SDS011;25763;49.972;8.568;2024-03-22T00:52:35;45.28;;;42.78;;
40058;SDS011;25763;49.972;8.568;2024-03-22T00:55:00;44.78;;;42.38;;
40058;SDS011;25763;49.972;8.568;2024-03-22T00:57:25;44.88;;;42.38;;
40058;SDS011;25763;49.972;8.568;2024-03-22T00:59:51;42.25;;;39.95;;
40058;SDS011;25763;49.972;8.568;2024-03-22T01:02:16;36.17;;;34.25;;
40058;SDS011;25763;49.972;8.568;2024-03-22T01:04:41;36.58;;;34.63;;
40058;SDS011;25763;49.972;8.568;2024-03-22T01:07:07;35.45;;;33.42;;
40058;SDS011;25763;49.972;8.568;2024-03-22T01:09:32;35.90;;;33.90;;
40058;SDS011;25763;49.972;8.568;2024-03-22T01:11:57;35.38;;;33.38;;
40058;SDS011;25763;49.972;8.568;2024-03-22T01:14:23;36.15;;;34.22;;
40058;SDS011;25763;49.972;8.568;2024-03-22T01:16:48;33.42;;;31.52;;
40058;SDS011;25763;49.972;8.568;2024-03-22T01:19:13;40.33;;;38.22;;
40058;SDS011;25763;49.972;8.568;2024-03-22T01:21:39;33.63;;;31.73;;
40058;SDS011;25763;49.972;8.568;2024-03-22T01:24:04;38.30;;;36.25;;
40058;SDS011;25763;49.972;8.568;2024-03-22T01:26:30;36.78;;;34.60;;
40058;SDS011;25763;49.972;8.568;2024-03-22T01:28:55;37.53;;;35.33;;
40058;SDS011;25763;49.972;8.568;2024-03-22T01:31:20;41.00;;;38.83;;
40058;SDS011;25763;49.972;8.568;2024-03-22T01:33:46;36.47;;;34.53;;
40058;SDS011;25763;49.972;8.568;2024-03-22T01:36:11;40.50;;;38.33;;
40058;SDS011;25763;49.972;8.568;2024-03-22T01:38:37;39.20;;;36.30;;
40058;SDS011;25763;49.972;8.568;2024-03-22T01:41:02;37.97;;;35.60;;
40058;SDS011;25763;49.972;8.568;2024-03-22T01:43:28;38.08;;;36.00;;
40058;SDS011;25763;49.972;8.568;2024-03-22T01:45:54;36.83;;;34.70;;
40058;SDS011;25763;49.972;8.568;2024-03-22T01:48:19;44.40;;;41.90;;
40058;SDS011;25763;49.972;8.568;2024-03-22T01:50:45;37.95;;;35.88;;
40058;SDS011;25763;49.972;8.568;2024-03-22T01:53:10;41.08;;;38.85;;
40058;SDS011;25763;49.972;8.568;2024-03-22T01:55:36;39.95;;;37.75;;
40058;SDS011;25763;49.972;8.568;2024-03-22T01:58:01;38.20;;;36.20;;
40058;SDS011;25763;49.972;8.568;2024-03-22T02:00:28;39.47;;;37.22;;
40058;SDS011;25763;49.972;8.568;2024-03-22T02:02:53;38.80;;;36.70;;
40058;SDS011;25763;49.972;8.568;2024-03-22T02:05:19;46.45;;;43.83;;
40058;SDS011;25763;49.972;8.568;2024-03-22T02:07:45;45.40;;;42.83;;
40058;SDS011;25763;49.972;8.568;2024-03-22T02:10:11;43.95;;;41.55;;
40058;SDS011;25763;49.972;8.568;2024-03-22T02:12:40;43.33;;;41.03;;
40058;SDS011;25763;49.972;8.568;2024-03-22T02:15:06;44.10;;;41.60;;
40058;SDS011;25763;49.972;8.568;2024-03-22T02:17:33;47.78;;;45.22;;
40058;SDS011;25763;49.972;8.568;2024-03-22T02:19:59;46.40;;;44.00;;
40058;SDS011;25763;49.972;8.568;2024-03-22T02:22:26;46.92;;;44.42;;
40058;SDS011;25763;49.972;8.568;2024-03-22T02:24:51;47.10;;;44.50;;
40058;SDS011;25763;49.972;8.568;2024-03-22T02:27:17;49.97;;;47.35;;
40058;SDS011;25763;49.972;8.568;2024-03-22T02:29:42;43.80;;;41.47;;
40058;SDS011;25763;49.972;8.568;2024-03-22T02:32:07;41.95;;;39.75;;
40058;SDS011;25763;49.972;8.568;2024-03-22T02:34:35;36.80;;;34.80;;
40058;SDS011;25763;49.972;8.568;2024-03-22T02:37:00;38.45;;;36.15;;
40058;SDS011;25763;49.972;8.568;2024-03-22T02:39:26;33.88;;;31.98;;
40058;SDS011;25763;49.972;8.568;2024-03-22T02:41:51;34.85;;;32.78;;
40058;SDS011;25763;49.972;8.568;2024-03-22T02:44:17;34.15;;;32.28;;
40058;SDS011;25763;49.972;8.568;2024-03-22T02:46:42;33.50;;;31.67;;
40058;SDS011;25763;49.972;8.568;2024-03-22T02:49:07;37.90;;;35.53;;
40058;SDS011;25763;49.972;8.568;2024-03-22T02:51:33;40.70;;;38.58;;
40058;SDS011;25763;49.972;8.568;2024-03-22T02:53:58;43.65;;;41.35;;
40058;SDS011;25763;49.972;8.568;2024-03-22T02:56:23;45.28;;;42.78;;
40058;SDS011;25763;49.972;8.568;2024-03-22T02:58:49;43.55;;;41.20;;
40058;SDS011;25763;49.972;8.568;2024-03-22T03:01:14;56.55;;;44.08;;
40058;SDS011;25763;49.972;8.568;2024-03-22T03:03:40;49.60;;;46.90;;
40058;SDS011;25763;49.972;8.568;2024-03-22T03:06:05;50.47;;;47.67;;
40058;SDS011;25763;49.972;8.568;2024-03-22T03:08:30;53.80;;;50.90;;
40058;SDS011;25763;49.972;8.568;2024-03-22T03:10:56;53.65;;;50.80;;
40058;SDS011;25763;49.972;8.568;2024-03-22T03:13:21;54.25;;;51.45;;
40058;SDS011;25763;49.972;8.568;2024-03-22T03:15:47;56.92;;;53.80;;
40058;SDS011;25763;49.972;8.568;2024-03-22T03:18:12;56.30;;;53.15;;
40058;SDS011;25763;49.972;8.568;2024-03-22T03:20:37;56.00;;;52.95;;
40058;SDS011;25763;49.972;8.568;2024-03-22T03:23:03;57.58;;;54.53;;
40058;SDS011;25763;49.972;8.568;2024-03-22T03:25:28;54.67;;;51.83;;
40058;SDS011;25763;49.972;8.568;2024-03-22T03:27:54;57.92;;;54.67;;
40058;SDS011;25763;49.972;8.568;2024-03-22T03:30:19;65.43;;;62.05;;
40058;SDS011;25763;49.972;8.568;2024-03-22T03:32:45;61.25;;;57.88;;
40058;SDS011;25763;49.972;8.568;2024-03-22T03:35:10;66.55;;;63.10;;
40058;SDS011;25763;49.972;8.568;2024-03-22T03:37:35;64.82;;;61.40;;
40058;SDS011;25763;49.972;8.568;2024-03-22T03:40:01;62.08;;;58.88;;
40058;SDS011;25763;49.972;8.568;2024-03-22T03:42:26;60.63;;;57.10;;
40058;SDS011;25763;49.972;8.568;2024-03-22T03:44:51;62.38;;;58.72;;
40058;SDS011;25763;49.972;8.568;2024-03-22T03:47:17;61.08;;;57.67;;
40058;SDS011;25763;49.972;8.568;2024-03-22T03:49:42;62.13;;;58.85;;
40058;SDS011;25763;49.972;8.568;2024-03-22T03:52:10;59.10;;;56.03;;
40058;SDS011;25763;49.972;8.568;2024-03-22T03:54:35;61.47;;;58.10;;
40058;SDS011;25763;49.972;8.568;2024-03-22T03:57:01;63.88;;;60.47;;
40058;SDS011;25763;49.972;8.568;2024-03-22T03:59:26;62.03;;;58.72;;
40058;SDS011;25763;49.972;8.568;2024-03-22T04:01:52;62.45;;;59.22;;
40058;SDS011;25763;49.972;8.568;2024-03-22T04:04:17;59.25;;;56.10;;
40058;SDS011;25763;49.972;8.568;2024-03-22T04:06:43;61.83;;;58.58;;
40058;SDS011;25763;49.972;8.568;2024-03-22T04:09:09;61.85;;;58.55;;
40058;SDS011;25763;49.972;8.568;2024-03-22T04:11:34;57.30;;;54.28;;
40058;SDS011;25763;49.972;8.568;2024-03-22T04:14:00;54.15;;;51.28;;
40058;SDS011;25763;49.972;8.568;2024-03-22T04:16:25;53.88;;;51.03;;
40058;SDS011;25763;49.972;8.568;2024-03-22T04:18:51;54.88;;;51.72;;
40058;SDS011;25763;49.972;8.568;2024-03-22T04:21:17;55.67;;;52.45;;
40058;SDS011;25763;49.972;8.568;2024-03-22T04:23:42;56.50;;;53.53;;
40058;SDS011;25763;49.972;8.568;2024-03-22T04:26:07;57.97;;;54.83;;
40058;SDS011;25763;49.972;8.568;2024-03-22T04:28:33;58.60;;;55.45;;
40058;SDS011;25763;49.972;8.568;2024-03-22T04:31:02;54.15;;;51.00;;
40058;SDS011;25763;49.972;8.568;2024-03-22T04:33:29;55.27;;;52.37;;
40058;SDS011;25763;49.972;8.568;2024-03-22T04:35:56;51.22;;;48.30;;
40058;SDS011;25763;49.972;8.568;2024-03-22T04:38:22;50.10;;;47.35;;
40058;SDS011;25763;49.972;8.568;2024-03-22T04:40:48;51.50;;;48.58;;
40058;SDS011;25763;49.972;8.568;2024-03-22T04:43:14;52.15;;;49.10;;
40058;SDS011;25763;49.972;8.568;2024-03-22T04:45:41;55.00;;;52.15;;
40058;SDS011;25763;49.972;8.568;2024-03-22T04:48:10;58.40;;;55.20;;
40058;SDS011;25763;49.972;8.568;2024-03-22T04:50:37;56.35;;;53.40;;
40058;SDS011;25763;49.972;8.568;2024-03-22T04:53:02;62.03;;;58.67;;
40058;SDS011;25763;49.972;8.568;2024-03-22T04:55:28;65.13;;;61.63;;
40058;SDS011;25763;49.972;8.568;2024-03-22T04:57:53;64.45;;;60.60;;
40058;SDS011;25763;49.972;8.568;2024-03-22T05:00:19;68.00;;;64.50;;
40058;SDS011;25763;49.972;8.568;2024-03-22T05:02:44;66.40;;;63.00;;
40058;SDS011;25763;49.972;8.568;2024-03-22T05:05:10;66.38;;;63.00;;
40058;SDS011;25763;49.972;8.568;2024-03-22T05:07:35;67.75;;;64.22;;
40058;SDS011;25763;49.972;8.568;2024-03-22T05:10:01;65.50;;;62.00;;
40058;SDS011;25763;49.972;8.568;2024-03-22T05:12:26;63.17;;;59.90;;
40058;SDS011;25763;49.972;8.568;2024-03-22T05:14:52;70.65;;;66.85;;
40058;SDS011;25763;49.972;8.568;2024-03-22T05:17:17;69.43;;;65.68;;
40058;SDS011;25763;49.972;8.568;2024-03-22T05:19:42;66.40;;;63.00;;
40058;SDS011;25763;49.972;8.568;2024-03-22T05:22:08;62.70;;;59.45;;
40058;SDS011;25763;49.972;8.568;2024-03-22T05:24:33;65.38;;;61.70;;
40058;SDS011;25763;49.972;8.568;2024-03-22T05:26:58;58.83;;;55.80;;
40058;SDS011;25763;49.972;8.568;2024-03-22T05:29:25;59.30;;;56.10;;
40058;SDS011;25763;49.972;8.568;2024-03-22T05:31:50;57.72;;;54.55;;
40058;SDS011;25763;49.972;8.568;2024-03-22T05:34:19;56.80;;;53.78;;
40058;SDS011;25763;49.972;8.568;2024-03-22T05:36:45;57.03;;;53.95;;
40058;SDS011;25763;49.972;8.568;2024-03-22T05:39:10;54.80;;;51.85;;
40058;SDS011;25763;49.972;8.568;2024-03-22T05:41:36;57.17;;;54.08;;
40058;SDS011;25763;49.972;8.568;2024-03-22T05:44:02;52.53;;;49.78;;
40058;SDS011;25763;49.972;8.568;2024-03-22T05:46:28;52.90;;;50.17;;
40058;SDS011;25763;49.972;8.568;2024-03-22T05:48:54;53.63;;;50.58;;
40058;SDS011;25763;49.972;8.568;2024-03-22T05:51:19;53.83;;;51.00;;
40058;SDS011;25763;49.972;8.568;2024-03-22T05:53:44;56.08;;;52.90;;
40058;SDS011;25763;49.972;8.568;2024-03-22T05:56:10;55.58;;;52.63;;
40058;SDS011;25763;49.972;8.568;2024-03-22T05:58:35;57.03;;;54.05;;
40058;SDS011;25763;49.972;8.568;2024-03-22T06:01:01;58.53;;;55.33;;
40058;SDS011;25763;49.972;8.568;2024-03-22T06:03:28;58.35;;;55.22;;
40058;SDS011;25763;49.972;8.568;2024-03-22T06:05:54;54.65;;;51.80;;
40058;SDS011;25763;49.972;8.568;2024-03-22T06:08:21;61.70;;;58.40;;
40058;SDS011;25763;49.972;8.568;2024-03-22T06:10:47;58.85;;;55.65;;
40058;SDS011;25763;49.972;8.568;2024-03-22T06:13:13;58.33;;;55.13;;
40058;SDS011;25763;49.972;8.568;2024-03-22T06:15:38;56.88;;;53.92;;
40058;SDS011;25763;49.972;8.568;2024-03-22T06:18:05;52.53;;;49.72;;
40058;SDS011;25763;49.972;8.568;2024-03-22T06:20:31;54.45;;;51.25;;
40058;SDS011;25763;49.972;8.568;2024-03-22T06:22:56;55.08;;;52.13;;
40058;SDS011;25763;49.972;8.568;2024-03-22T06:25:22;55.13;;;51.42;;
40058;SDS011;25763;49.972;8.568;2024-03-22T06:27:47;51.63;;;48.90;;
40058;SDS011;25763;49.972;8.568;2024-03-22T06:30:13;56.75;;;53.65;;
40058;SDS011;25763;49.972;8.568;2024-03-22T06:32:38;51.58;;;48.83;;
40058;SDS011;25763;49.972;8.568;2024-03-22T06:35:03;53.22;;;50.38;;
40058;SDS011;25763;49.972;8.568;2024-03-22T06:37:30;51.83;;;48.92;;
40058;SDS011;25763;49.972;8.568;2024-03-22T06:39:56;52.70;;;49.88;;
40058;SDS011;25763;49.972;8.568;2024-03-22T06:42:23;54.53;;;51.63;;
40058;SDS011;25763;49.972;8.568;2024-03-22T06:44:49;57.45;;;54.42;;
40058;SDS011;25763;49.972;8.568;2024-03-22T06:47:14;55.13;;;52.13;;
40058;SDS011;25763;49.972;8.568;2024-03-22T06:49:40;55.95;;;53.05;;
40058;SDS011;25763;49.972;8.568;2024-03-22T06:52:05;58.47;;;55.40;;
40058;SDS011;25763;49.972;8.568;2024-03-22T06:54:31;50.58;;;47.88;;
40058;SDS011;25763;49.972;8.568;2024-03-22T06:56:56;49.85;;;47.15;;
40058;SDS011;25763;49.972;8.568;2024-03-22T06:59:21;51.58;;;48.70;;
40058;SDS011;25763;49.972;8.568;2024-03-22T07:01:47;51.05;;;48.25;;
40058;SDS011;25763;49.972;8.568;2024-03-22T07:04:12;47.75;;;45.22;;
40058;SDS011;25763;49.972;8.568;2024-03-22T07:06:37;46.00;;;43.60;;
40058;SDS011;25763;49.972;8.568;2024-03-22T07:09:03;47.22;;;44.47;;
40058;SDS011;25763;49.972;8.568;2024-03-22T07:11:28;46.42;;;43.92;;
40058;SDS011;25763;49.972;8.568;2024-03-22T07:13:55;45.28;;;42.72;;
40058;SDS011;25763;49.972;8.568;2024-03-22T07:16:20;45.42;;;43.03;;
40058;SDS011;25763;49.972;8.568;2024-03-22T07:18:45;39.65;;;37.45;;
40058;SDS011;25763;49.972;8.568;2024-03-22T07:21:13;40.33;;;38.13;;
40058;SDS011;25763;49.972;8.568;2024-03-22T07:23:38;39.58;;;37.45;;
40058;SDS011;25763;49.972;8.568;2024-03-22T07:26:04;41.10;;;38.88;;
40058;SDS011;25763;49.972;8.568;2024-03-22T07:28:30;39.47;;;37.28;;
40058;SDS011;25763;49.972;8.568;2024-03-22T07:30:56;37.28;;;35.30;;
40058;SDS011;25763;49.972;8.568;2024-03-22T07:33:21;43.78;;;41.35;;
40058;SDS011;25763;49.972;8.568;2024-03-22T07:35:46;37.63;;;35.50;;
40058;SDS011;25763;49.972;8.568;2024-03-22T07:38:12;39.78;;;37.58;;
40058;SDS011;25763;49.972;8.568;2024-03-22T07:40:37;38.35;;;36.17;;
40058;SDS011;25763;49.972;8.568;2024-03-22T07:43:02;34.30;;;32.30;;
40058;SDS011;25763;49.972;8.568;2024-03-22T07:45:31;32.63;;;30.83;;
40058;SDS011;25763;49.972;8.568;2024-03-22T07:47:57;32.85;;;30.85;;
40058;SDS011;25763;49.972;8.568;2024-03-22T07:50:23;35.90;;;33.97;;
40058;SDS011;25763;49.972;8.568;2024-03-22T07:52:48;34.33;;;32.22;;
40058;SDS011;25763;49.972;8.568;2024-03-22T07:55:14;35.80;;;33.55;;
40058;SDS011;25763;49.972;8.568;2024-03-22T07:57:39;34.88;;;32.78;;
40058;SDS011;25763;49.972;8.568;2024-03-22T08:00:05;38.53;;;36.33;;
40058;SDS011;25763;49.972;8.568;2024-03-22T08:02:31;36.60;;;34.63;;
40058;SDS011;25763;49.972;8.568;2024-03-22T08:04:57;36.20;;;34.22;;
40058;SDS011;25763;49.972;8.568;2024-03-22T08:07:22;35.00;;;32.78;;
40058;SDS011;25763;49.972;8.568;2024-03-22T08:09:47;37.83;;;35.63;;
40058;SDS011;25763;49.972;8.568;2024-03-22T08:12:13;39.30;;;37.22;;
40058;SDS011;25763;49.972;8.568;2024-03-22T08:14:38;36.63;;;34.60;;
40058;SDS011;25763;49.972;8.568;2024-03-22T08:17:03;37.88;;;35.58;;
40058;SDS011;25763;49.972;8.568;2024-03-22T08:19:29;40.17;;;37.80;;
40058;SDS011;25763;49.972;8.568;2024-03-22T08:21:54;40.03;;;37.80;;
40058;SDS011;25763;49.972;8.568;2024-03-22T08:24:19;39.45;;;37.08;;
40058;SDS011;25763;49.972;8.568;2024-03-22T08:26:45;40.55;;;38.35;;
40058;SDS011;25763;49.972;8.568;2024-03-22T08:29:12;41.50;;;39.30;;
40058;SDS011;25763;49.972;8.568;2024-03-22T08:31:39;43.28;;;41.03;;
40058;SDS011;25763;49.972;8.568;2024-03-22T08:34:05;45.95;;;42.80;;
40058;SDS011;25763;49.972;8.568;2024-03-22T08:36:30;42.60;;;40.25;;
40058;SDS011;25763;49.972;8.568;2024-03-22T08:38:56;47.25;;;44.33;;
40058;SDS011;25763;49.972;8.568;2024-03-22T08:41:21;45.30;;;42.80;;
40058;SDS011;25763;49.972;8.568;2024-03-22T08:43:47;42.90;;;40.40;;
40058;SDS011;25763;49.972;8.568;2024-03-22T08:46:12;42.63;;;40.33;;
40058;SDS011;25763;49.972;8.568;2024-03-22T08:48:37;44.95;;;42.38;;
40058;SDS011;25763;49.972;8.568;2024-03-22T08:51:03;40.50;;;38.30;;
40058;SDS011;25763;49.972;8.568;2024-03-22T08:53:28;43.38;;;40.97;;
40058;SDS011;25763;49.972;8.568;2024-03-22T08:55:53;43.28;;;41.00;;
40058;SDS011;25763;49.972;8.568;2024-03-22T08:58:19;45.35;;;42.90;;
40058;SDS011;25763;49.972;8.568;2024-03-22T09:00:44;40.25;;;38.15;;
40058;SDS011;25763;49.972;8.568;2024-03-22T09:03:10;37.22;;;35.25;;
40058;SDS011;25763;49.972;8.568;2024-03-22T09:05:35;33.75;;;31.95;;
40058;SDS011;25763;49.972;8.568;2024-03-22T09:08:01;38.85;;;36.75;;
40058;SDS011;25763;49.972;8.568;2024-03-22T09:10:29;41.28;;;39.00;;
40058;SDS011;25763;49.972;8.568;2024-03-22T09:12:55;39.80;;;37.65;;
40058;SDS011;25763;49.972;8.568;2024-03-22T09:15:21;43.25;;;40.85;;
40058;SDS011;25763;49.972;8.568;2024-03-22T09:17:46;37.13;;;35.17;;
40058;SDS011;25763;49.972;8.568;2024-03-22T09:20:12;46.33;;;43.92;;
40058;SDS011;25763;49.972;8.568;2024-03-22T09:22:37;50.03;;;47.45;;
40058;SDS011;25763;49.972;8.568;2024-03-22T09:25:04;50.67;;;48.10;;
40058;SDS011;25763;49.972;8.568;2024-03-22T09:27:31;71.10;;;67.50;;
40058;SDS011;25763;49.972;8.568;2024-03-22T09:29:57;59.75;;;56.70;;
40058;SDS011;25763;49.972;8.568;2024-03-22T09:32:22;57.33;;;54.40;;
40058;SDS011;25763;49.972;8.568;2024-03-22T09:34:48;47.30;;;44.75;;
40058;SDS011;25763;49.972;8.568;2024-03-22T09:37:15;55.17;;;52.22;;
40058;SDS011;25763;49.972;8.568;2024-03-22T09:39:40;65.90;;;62.50;;
40058;SDS011;25763;49.972;8.568;2024-03-22T09:42:06;46.85;;;44.05;;
40058;SDS011;25763;49.972;8.568;2024-03-22T09:44:32;53.72;;;50.30;;
40058;SDS011;25763;49.972;8.568;2024-03-22T09:46:57;52.10;;;48.60;;
40058;SDS011;25763;49.972;8.568;2024-03-22T09:49:24;47.85;;;44.63;;
40058;SDS011;25763;49.972;8.568;2024-03-22T09:51:50;46.45;;;43.00;;
40058;SDS011;25763;49.972;8.568;2024-03-22T09:54:16;49.17;;;45.15;;
40058;SDS011;25763;49.972;8.568;2024-03-22T09:56:42;53.58;;;50.40;;
40058;SDS011;25763;49.972;8.568;2024-03-22T09:59:09;37.00;;;34.38;;
40058;SDS011;25763;49.972;8.568;2024-03-22T10:01:35;34.97;;;32.80;;
40058;SDS011;25763;49.972;8.568;2024-03-22T10:04:01;32.95;;;31.13;;
40058;SDS011;25763;49.972;8.568;2024-03-22T10:06:28;32.97;;;31.08;;
40058;SDS011;25763;49.972;8.568;2024-03-22T10:08:54;31.10;;;29.40;;
40058;SDS011;25763;49.972;8.568;2024-03-22T10:11:19;33.55;;;31.65;;
40058;SDS011;25763;49.972;8.568;2024-03-22T10:13:45;34.80;;;33.00;;
40058;SDS011;25763;49.972;8.568;2024-03-22T10:16:12;43.45;;;40.97;;
40058;SDS011;25763;49.972;8.568;2024-03-22T10:18:37;39.35;;;37.13;;
40058;SDS011;25763;49.972;8.568;2024-03-22T10:21:05;53.05;;;50.35;;
40058;SDS011;25763;49.972;8.568;2024-03-22T10:23:31;56.50;;;53.60;;
40058;SDS011;25763;49.972;8.568;2024-03-22T10:25:57;53.67;;;50.88;;
40058;SDS011;25763;49.972;8.568;2024-03-22T10:28:23;72.25;;;68.45;;
40058;SDS011;25763;49.972;8.568;2024-03-22T10:30:50;108.18;;;102.78;;
40058;SDS011;25763;49.972;8.568;2024-03-22T10:33:18;66.88;;;63.42;;
40058;SDS011;25763;49.972;8.568;2024-03-22T10:35:44;193.50;;;183.85;;
40058;SDS011;25763;49.972;8.568;2024-03-22T10:38:12;191.00;;;181.35;;
40058;SDS011;25763;49.972;8.568;2024-03-22T10:40:38;149.30;;;141.80;;
40058;SDS011;25763;49.972;8.568;2024-03-22T10:43:05;204.70;;;194.65;;
40058;SDS011;25763;49.972;8.568;2024-03-22T10:45:30;210.25;;;199.80;;
40058;SDS011;25763;49.972;8.568;2024-03-22T10:47:56;197.40;;;187.57;;
40058;SDS011;25763;49.972;8.568;2024-03-22T10:50:22;181.80;;;172.73;;
40058;SDS011;25763;49.972;8.568;2024-03-22T10:52:51;207.15;;;196.88;;
40058;SDS011;25763;49.972;8.568;2024-03-22T10:55:27;187.90;;;178.50;;
40058;SDS011;25763;49.972;8.568;2024-03-22T10:57:56;144.52;;;137.20;;
40058;SDS011;25763;49.972;8.568;2024-03-22T11:00:31;136.82;;;129.68;;
40058;SDS011;25763;49.972;8.568;2024-03-22T11:02:58;193.98;;;184.30;;
40058;SDS011;25763;49.972;8.568;2024-03-22T11:05:27;178.35;;;169.35;;
40058;SDS011;25763;49.972;8.568;2024-03-22T11:07:59;180.80;;;171.73;;
40058;SDS011;25763;49.972;8.568;2024-03-22T11:10:33;188.75;;;179.00;;
40058;SDS011;25763;49.972;8.568;2024-03-22T11:13:07;186.05;;;176.68;;
40058;SDS011;25763;49.972;8.568;2024-03-22T11:15:34;164.40;;;155.98;;
40058;SDS011;25763;49.972;8.568;2024-03-22T11:18:00;188.45;;;178.73;;
40058;SDS011;25763;49.972;8.568;2024-03-22T11:20:26;203.35;;;193.30;;
40058;SDS011;25763;49.972;8.568;2024-03-22T11:22:52;201.88;;;191.88;;
40058;SDS011;25763;49.972;8.568;2024-03-22T11:25:18;167.50;;;159.15;;
40058;SDS011;25763;49.972;8.568;2024-03-22T11:27:44;190.35;;;180.85;;
40058;SDS011;25763;49.972;8.568;2024-03-22T11:30:10;156.60;;;148.73;;
40058;SDS011;25763;49.972;8.568;2024-03-22T11:32:36;59.90;;;56.85;;
40058;SDS011;25763;49.972;8.568;2024-03-22T11:35:09;55.97;;;52.97;;
40058;SDS011;25763;49.972;8.568;2024-03-22T11:37:35;41.05;;;38.83;;
40058;SDS011;25763;49.972;8.568;2024-03-22T11:40:00;39.83;;;37.72;;
40058;SDS011;25763;49.972;8.568;2024-03-22T11:42:29;37.10;;;35.10;;
40058;SDS011;25763;49.972;8.568;2024-03-22T11:44:55;39.97;;;37.88;;
40058;SDS011;25763;49.972;8.568;2024-03-22T11:47:20;39.75;;;37.65;;
40058;SDS011;25763;49.972;8.568;2024-03-22T11:49:45;38.17;;;36.15;;
40058;SDS011;25763;49.972;8.568;2024-03-22T11:52:11;36.13;;;34.13;;
40058;SDS011;25763;49.972;8.568;2024-03-22T11:54:36;37.30;;;35.30;;
40058;SDS011;25763;49.972;8.568;2024-03-22T11:57:02;35.53;;;33.63;;
40058;SDS011;25763;49.972;8.568;2024-03-22T11:59:29;40.72;;;38.63;;
40058;SDS011;25763;49.972;8.568;2024-03-22T12:01:54;31.27;;;29.48;;
40058;SDS011;25763;49.972;8.568;2024-03-22T12:04:20;34.95;;;33.08;;
40058;SDS011;25763;49.972;8.568;2024-03-22T12:06:45;30.17;;;28.38;;
40058;SDS011;25763;49.972;8.568;2024-03-22T12:09:13;33.45;;;31.52;;
40058;SDS011;25763;49.972;8.568;2024-03-22T12:11:39;30.65;;;28.92;;
40058;SDS011;25763;49.972;8.568;2024-03-22T12:14:05;37.20;;;35.10;;
40058;SDS011;25763;49.972;8.568;2024-03-22T12:16:31;37.72;;;35.65;;
40058;SDS011;25763;49.972;8.568;2024-03-22T12:18:57;34.47;;;32.70;;
40058;SDS011;25763;49.972;8.568;2024-03-22T12:21:22;33.67;;;31.88;;
40058;SDS011;25763;49.972;8.568;2024-03-22T12:23:47;35.90;;;33.90;;
40058;SDS011;25763;49.972;8.568;2024-03-22T12:26:13;33.63;;;31.73;;
40058;SDS011;25763;49.972;8.568;2024-03-22T12:28:38;35.60;;;33.70;;
40058;SDS011;25763;49.972;8.568;2024-03-22T12:31:04;44.63;;;42.33;;
40058;SDS011;25763;49.972;8.568;2024-03-22T12:33:30;41.75;;;39.55;;
40058;SDS011;25763;49.972;8.568;2024-03-22T12:35:55;43.00;;;40.75;;
40058;SDS011;25763;49.972;8.568;2024-03-22T12:38:21;42.20;;;39.90;;
40058;SDS011;25763;49.972;8.568;2024-03-22T12:40:46;39.80;;;37.13;;
40058;SDS011;25763;49.972;8.568;2024-03-22T12:43:11;35.15;;;33.15;;
40058;SDS011;25763;49.972;8.568;2024-03-22T12:45:37;39.22;;;37.10;;
40058;SDS011;25763;49.972;8.568;2024-03-22T12:48:03;35.53;;;33.63;;
40058;SDS011;25763;49.972;8.568;2024-03-22T12:50:29;39.58;;;37.53;;
40058;SDS011;25763;49.972;8.568;2024-03-22T12:52:55;45.90;;;43.50;;
40058;SDS011;25763;49.972;8.568;2024-03-22T12:55:20;38.80;;;36.75;;
40058;SDS011;25763;49.972;8.568;2024-03-22T12:57:46;41.45;;;39.15;;
40058;SDS011;25763;49.972;8.568;2024-03-22T13:00:11;46.40;;;43.97;;
40058;SDS011;25763;49.972;8.568;2024-03-22T13:02:43;41.55;;;39.15;;
40058;SDS011;25763;49.972;8.568;2024-03-22T13:05:09;43.67;;;40.88;;
40058;SDS011;25763;49.972;8.568;2024-03-22T13:07:35;48.70;;;46.20;;
40058;SDS011;25763;49.972;8.568;2024-03-22T13:10:01;43.05;;;40.35;;
40058;SDS011;25763;49.972;8.568;2024-03-22T13:12:27;42.30;;;40.08;;
40058;SDS011;25763;49.972;8.568;2024-03-22T13:14:53;42.67;;;40.47;;
40058;SDS011;25763;49.972;8.568;2024-03-22T13:17:19;42.47;;;40.17;;
40058;SDS011;25763;49.972;8.568;2024-03-22T13:19:45;43.22;;;40.92;;
40058;SDS011;25763;49.972;8.568;2024-03-22T13:22:10;47.13;;;44.50;;
40058;SDS011;25763;49.972;8.568;2024-03-22T13:24:37;43.15;;;40.78;;
40058;SDS011;25763;49.972;8.568;2024-03-22T13:27:03;37.95;;;35.88;;
40058;SDS011;25763;49.972;8.568;2024-03-22T13:29:28;35.25;;;33.35;;
40058;SDS011;25763;49.972;8.568;2024-03-22T13:31:54;34.58;;;32.53;;
40058;SDS011;25763;49.972;8.568;2024-03-22T13:34:19;35.40;;;33.30;;
40058;SDS011;25763;49.972;8.568;2024-03-22T13:36:45;34.17;;;32.33;;
40058;SDS011;25763;49.972;8.568;2024-03-22T13:39:10;33.85;;;31.95;;
40058;SDS011;25763;49.972;8.568;2024-03-22T13:41:35;34.85;;;32.13;;
40058;SDS011;25763;49.972;8.568;2024-03-22T13:44:01;30.40;;;28.70;;
40058;SDS011;25763;49.972;8.568;2024-03-22T13:46:31;36.20;;;33.67;;
40058;SDS011;25763;49.972;8.568;2024-03-22T13:48:56;28.52;;;26.98;;
40058;SDS011;25763;49.972;8.568;2024-03-22T13:51:21;31.58;;;29.88;;
40058;SDS011;25763;49.972;8.568;2024-03-22T13:53:47;32.70;;;30.90;;
40058;SDS011;25763;49.972;8.568;2024-03-22T13:56:12;29.05;;;27.45;;
40058;SDS011;25763;49.972;8.568;2024-03-22T13:58:37;30.55;;;28.65;;
40058;SDS011;25763;49.972;8.568;2024-03-22T14:01:03;30.30;;;28.42;;
40058;SDS011;25763;49.972;8.568;2024-03-22T14:03:28;30.48;;;28.63;;
40058;SDS011;25763;49.972;8.568;2024-03-22T14:05:54;29.10;;;27.38;;
40058;SDS011;25763;49.972;8.568;2024-03-22T14:08:19;30.10;;;27.95;;
40058;SDS011;25763;49.972;8.568;2024-03-22T14:10:45;27.27;;;25.77;;
40058;SDS011;25763;49.972;8.568;2024-03-22T14:13:11;27.13;;;25.58;;